createdAt,value
2023-03-22T00:01:23.480Z,42.12
2023-03-22T00:03:55.000Z,42.09
2023-03-22T00:06:22.719Z,42.10
2023-03-22T00:08:52.406Z,42.05
2023-03-22T00:11:24.520Z,42.05
2023-03-22T00:13:54.667Z,42.14
2023-03-22T00:16:25.026Z,42.18
2023-03-22T00:18:55.416Z,42.12
2023-03-22T00:21:26.274Z,42.12
2023-03-22T00:23:53.572Z,42.09
2023-03-22T00:26:24.264Z,42.07
2023-03-22T00:28:52.096Z,42.12
2023-03-22T00:31:22.826Z,42.08
2023-03-22T00:33:54.171Z,42.07
2023-03-22T00:36:24.389Z,42.06
2023-03-22T00:38:51.881Z,42.07
2023-03-22T00:41:23.925Z,42.22
2023-03-22T00:43:52.565Z,42.30
2023-03-22T00:46:22.299Z,42.32
2023-03-22T00:48:52.111Z,42.31
2023-03-22T00:51:19.674Z,42.34
2023-03-22T00:53:50.298Z,42.33
2023-03-22T00:56:17.416Z,42.39
2023-03-22T00:58:47.214Z,42.38
2023-03-22T01:01:15.304Z,42.46
2023-03-22T01:03:46.705Z,42.45
2023-03-22T01:06:13.643Z,42.51
2023-03-22T01:08:44.703Z,42.38
2023-03-22T01:11:12.314Z,42.52
2023-03-22T01:13:40.427Z,42.55
2023-03-22T01:16:11.925Z,42.49
2023-03-22T01:18:38.884Z,42.54
2023-03-22T01:21:09.396Z,42.53
2023-03-22T01:23:37.362Z,42.57
2023-03-22T01:26:08.137Z,42.66
2023-03-22T01:28:34.948Z,42.57
2023-03-22T01:31:04.953Z,42.55
2023-03-22T01:33:32.181Z,42.56
2023-03-22T01:35:59.302Z,42.59
2023-03-22T01:38:29.214Z,42.59
2023-03-22T01:40:56.260Z,42.61
2023-03-22T01:43:25.796Z,42.57
2023-03-22T01:45:56.417Z,42.62
2023-03-22T01:48:44.021Z,42.61
2023-03-22T01:51:22.725Z,42.58
2023-03-22T01:53:54.837Z,42.61
2023-03-22T01:56:25.563Z,42.63
2023-03-22T01:59:00.243Z,42.58
2023-03-22T02:01:27.615Z,42.65
2023-03-22T02:04:17.858Z,42.58
2023-03-22T02:06:45.785Z,42.59
2023-03-22T02:09:15.237Z,42.58
2023-03-22T02:11:46.489Z,42.60
2023-03-22T02:14:18.918Z,42.65
2023-03-22T02:16:59.254Z,42.58
2023-03-22T02:19:38.218Z,42.58
2023-03-22T02:22:46.827Z,42.58
2023-03-22T02:25:39.574Z,42.53
2023-03-22T02:28:25.271Z,42.56
2023-03-22T02:31:10.479Z,42.64
2023-03-22T02:33:45.035Z,42.56
2023-03-22T02:36:28.164Z,42.62
2023-03-22T02:39:26.550Z,42.59
2023-03-22T02:42:23.632Z,42.64
2023-03-22T02:45:02.467Z,42.67
2023-03-22T02:47:34.809Z,42.64
2023-03-22T02:50:25.997Z,42.61
2023-03-22T02:53:07.202Z,42.62
2023-03-22T02:55:38.124Z,42.63
2023-03-22T02:58:12.743Z,42.63
2023-03-22T03:00:41.549Z,42.64
2023-03-22T03:03:12.662Z,42.67
2023-03-22T03:05:50.206Z,42.67
2023-03-22T03:08:19.940Z,42.63
2023-03-22T03:10:51.640Z,42.64
2023-03-22T03:13:19.521Z,42.65
2023-03-22T03:15:53.922Z,42.69
2023-03-22T03:18:44.934Z,42.67
2023-03-22T03:21:29.980Z,42.69
2023-03-22T03:24:27.730Z,42.67
2023-03-22T03:27:40.033Z,42.68
2023-03-22T03:30:20.721Z,42.74
2023-03-22T03:32:53.954Z,42.69
2023-03-22T03:35:24.860Z,42.68
2023-03-22T03:38:08.456Z,42.65
2023-03-22T03:40:42.234Z,42.61
2023-03-22T03:43:10.041Z,42.71
2023-03-22T03:45:46.765Z,42.68
2023-03-22T03:48:26.640Z,42.69
2023-03-22T03:50:54.594Z,42.65
2023-03-22T03:53:21.994Z,42.63
2023-03-22T03:55:48.832Z,42.70
2023-03-22T03:58:18.974Z,42.67
2023-03-22T04:00:46.769Z,42.66
2023-03-22T04:03:14.625Z,42.67
2023-03-22T04:05:41.756Z,42.69
2023-03-22T04:08:09.049Z,42.76
2023-03-22T04:10:36.047Z,42.70
2023-03-22T04:13:08.423Z,42.66
2023-03-22T04:15:38.614Z,42.74
2023-03-22T04:18:05.907Z,42.73
2023-03-22T04:20:32.809Z,42.75
2023-03-22T04:23:05.121Z,42.71
2023-03-22T04:25:32.038Z,42.76
2023-03-22T04:27:58.883Z,42.73
2023-03-22T04:30:26.220Z,42.69
2023-03-22T04:32:54.595Z,42.76
2023-03-22T04:35:24.306Z,42.71
2023-03-22T04:37:52.690Z,42.79
2023-03-22T04:40:25.493Z,42.76
2023-03-22T04:42:55.839Z,42.75
2023-03-22T04:45:25.631Z,42.74
2023-03-22T04:47:55.821Z,42.72
2023-03-22T04:50:22.821Z,42.76
2023-03-22T04:52:55.542Z,42.73
2023-03-22T04:55:25.044Z,42.71
2023-03-22T04:57:54.967Z,42.72
2023-03-22T05:00:25.649Z,42.74
2023-03-22T05:02:52.625Z,42.75
2023-03-22T05:05:19.631Z,42.76
2023-03-22T05:07:46.702Z,42.78
2023-03-22T05:10:13.897Z,42.77
2023-03-22T05:12:40.737Z,42.76
2023-03-22T05:15:09.180Z,42.77
2023-03-22T05:17:41.878Z,42.88
2023-03-22T05:20:12.542Z,42.71
2023-03-22T05:22:39.396Z,42.71
2023-03-22T05:25:10.390Z,42.98
2023-03-22T05:27:37.295Z,42.70
2023-03-22T05:30:10.813Z,42.52
2023-03-22T05:32:38.383Z,42.50
2023-03-22T05:35:06.198Z,42.41
2023-03-22T05:37:33.420Z,42.38
2023-03-22T05:40:08.058Z,42.34
2023-03-22T05:42:38.609Z,42.36
2023-03-22T05:45:06.826Z,42.38
2023-03-22T05:47:34.209Z,42.27
2023-03-22T05:50:03.950Z,42.51
2023-03-22T05:52:31.283Z,42.78
2023-03-22T05:55:09.436Z,42.46
2023-03-22T05:57:36.702Z,42.19
2023-03-22T06:00:04.715Z,42.66
2023-03-22T06:02:31.480Z,42.73
2023-03-22T06:04:58.485Z,42.58
2023-03-22T06:07:28.520Z,42.62
2023-03-22T06:09:55.574Z,43.34
2023-03-22T06:12:22.526Z,43.57
2023-03-22T06:14:49.489Z,43.29
2023-03-22T06:17:17.066Z,43.07
2023-03-22T06:19:53.348Z,43.04
2023-03-22T06:22:23.625Z,42.85
2023-03-22T06:24:55.385Z,42.97
2023-03-22T06:27:26.235Z,42.85
2023-03-22T06:29:53.127Z,42.56
2023-03-22T06:32:22.657Z,42.56
2023-03-22T06:34:56.839Z,42.52
2023-03-22T06:37:27.411Z,42.58
2023-03-22T06:39:59.957Z,42.11
2023-03-22T06:42:29.839Z,42.22
2023-03-22T06:44:57.898Z,42.03
2023-03-22T06:47:26.450Z,42.00
2023-03-22T06:49:56.176Z,42.65
2023-03-22T06:52:24.073Z,42.23
2023-03-22T06:54:57.015Z,42.31
2023-03-22T06:57:25.024Z,41.96
2023-03-22T06:59:55.450Z,42.31
2023-03-22T07:02:23.416Z,41.90
2023-03-22T07:04:51.646Z,42.03
2023-03-22T07:07:21.778Z,42.12
2023-03-22T07:09:49.446Z,41.95
2023-03-22T07:12:20.112Z,42.19
2023-03-22T07:14:47.757Z,42.17
2023-03-22T07:17:14.935Z,42.06
2023-03-22T07:19:42.373Z,42.41
2023-03-22T07:22:10.748Z,42.29
2023-03-22T07:24:47.249Z,42.32
2023-03-22T07:27:24.115Z,42.46
2023-03-22T07:29:57.882Z,42.51
2023-03-22T07:32:28.325Z,42.45
2023-03-22T07:34:56.143Z,42.97
2023-03-22T07:37:24.169Z,43.46
2023-03-22T07:39:54.364Z,43.86
2023-03-22T07:42:24.960Z,43.68
2023-03-22T07:44:52.275Z,43.73
2023-03-22T07:47:37.744Z,43.78
2023-03-22T07:50:12.812Z,43.81
2023-03-22T07:52:42.524Z,43.85
2023-03-22T07:55:11.917Z,43.80
2023-03-22T07:57:40.403Z,43.81
2023-03-22T08:00:09.011Z,43.98
2023-03-22T08:02:42.903Z,44.01
2023-03-22T08:05:11.476Z,44.01
2023-03-22T08:07:40.720Z,44.03
2023-03-22T08:10:08.196Z,43.90
2023-03-22T08:12:38.587Z,43.80
2023-03-22T08:15:05.912Z,43.82
2023-03-22T08:17:32.981Z,43.79
2023-03-22T08:20:05.014Z,43.89
2023-03-22T08:22:37.878Z,45.02
2023-03-22T08:25:05.545Z,46.13
2023-03-22T08:27:38.735Z,46.81
2023-03-22T08:30:11.074Z,47.23
2023-03-22T08:32:41.094Z,47.07
2023-03-22T08:35:08.687Z,46.83
2023-03-22T08:37:38.499Z,46.72
2023-03-22T08:40:07.032Z,46.60
2023-03-22T08:42:40.511Z,46.45
2023-03-22T08:45:08.046Z,46.35
2023-03-22T08:47:38.921Z,46.34
2023-03-22T08:50:06.288Z,46.26
2023-03-22T08:52:33.717Z,46.17
2023-03-22T08:55:06.322Z,46.14
2023-03-22T08:57:38.766Z,46.10
2023-03-22T09:00:09.743Z,46.06
2023-03-22T09:02:40.223Z,46.04
2023-03-22T09:05:10.323Z,46.03
2023-03-22T09:07:41.763Z,45.95
2023-03-22T09:10:11.971Z,45.92
2023-03-22T09:12:42.404Z,45.89
2023-03-22T09:15:12.985Z,45.92
2023-03-22T09:17:39.759Z,45.85
2023-03-22T09:20:12.944Z,45.78
2023-03-22T09:22:40.261Z,45.74
2023-03-22T09:25:08.451Z,45.71
2023-03-22T09:27:35.538Z,45.74
2023-03-22T09:30:02.633Z,45.71
2023-03-22T09:32:35.043Z,45.75
2023-03-22T09:35:07.741Z,45.80
2023-03-22T09:37:35.067Z,45.66
2023-03-22T09:40:05.607Z,45.55
2023-03-22T09:42:44.690Z,45.59
2023-03-22T09:45:22.907Z,45.50
2023-03-22T09:47:56.583Z,45.47
2023-03-22T09:50:27.963Z,45.46
2023-03-22T09:52:58.905Z,45.36
2023-03-22T09:55:43.811Z,45.43
2023-03-22T09:58:41.891Z,45.45
2023-03-22T10:01:29.116Z,45.37
2023-03-22T10:04:08.085Z,45.27
2023-03-22T10:06:35.512Z,45.21
2023-03-22T10:09:11.253Z,45.12
2023-03-22T10:11:54.142Z,45.19
2023-03-22T10:14:36.214Z,45.15
2023-03-22T10:17:11.691Z,45.16
2023-03-22T10:19:55.602Z,45.14
2023-03-22T10:22:30.977Z,45.10
2023-03-22T10:25:06.463Z,45.05
2023-03-22T10:27:34.473Z,45.13
2023-03-22T10:30:04.526Z,45.00
2023-03-22T10:32:57.763Z,45.00
2023-03-22T10:35:34.280Z,45.00
2023-03-22T10:38:09.625Z,44.96
2023-03-22T10:40:42.044Z,45.00
2023-03-22T10:43:25.450Z,44.94
2023-03-22T10:46:01.203Z,44.98
2023-03-22T10:48:34.883Z,44.72
2023-03-22T10:51:02.166Z,44.71
2023-03-22T10:53:38.291Z,44.87
2023-03-22T10:56:13.339Z,44.89
2023-03-22T10:58:42.807Z,44.97
2023-03-22T11:01:15.347Z,45.14
2023-03-22T11:03:50.310Z,45.31
2023-03-22T11:06:26.195Z,45.30
2023-03-22T11:09:16.326Z,45.30
2023-03-22T11:11:53.468Z,45.19
2023-03-22T11:14:35.202Z,45.20
2023-03-22T11:17:09.373Z,45.19
2023-03-22T11:19:43.117Z,45.16
2023-03-22T11:22:38.896Z,45.12
2023-03-22T11:25:30.627Z,45.12
2023-03-22T11:28:20.551Z,44.95
2023-03-22T11:31:15.041Z,45.11
2023-03-22T11:33:59.632Z,45.54
2023-03-22T11:36:27.999Z,45.94
2023-03-22T11:39:08.825Z,45.74
2023-03-22T11:41:38.670Z,45.58
2023-03-22T11:44:17.513Z,45.52
2023-03-22T11:46:59.709Z,45.13
2023-03-22T11:49:47.298Z,45.23
2023-03-22T11:52:22.186Z,45.21
2023-03-22T11:54:50.366Z,45.10
2023-03-22T11:57:24.996Z,45.08
2023-03-22T12:00:10.116Z,45.04
2023-03-22T12:03:07.620Z,44.74
2023-03-22T12:05:39.686Z,44.79
2023-03-22T12:08:31.076Z,43.13
2023-03-22T12:11:22.382Z,44.50
2023-03-22T12:13:57.794Z,44.43
2023-03-22T12:16:51.496Z,43.62
2023-03-22T12:19:40.023Z,43.83
2023-03-22T12:22:20.977Z,43.43
2023-03-22T12:24:51.322Z,43.40
2023-03-22T12:27:43.897Z,43.07
2023-03-22T12:30:34.177Z,43.45
2023-03-22T12:33:26.938Z,43.47
2023-03-22T12:36:01.440Z,42.39
2023-03-22T12:38:45.282Z,43.28
2023-03-22T12:41:25.492Z,43.28
2023-03-22T12:44:03.947Z,43.34
2023-03-22T12:46:49.707Z,43.38
2023-03-22T12:49:39.790Z,43.24
2023-03-22T12:52:18.624Z,43.18
2023-03-22T12:54:50.276Z,43.38
2023-03-22T12:57:21.092Z,43.11
2023-03-22T12:59:56.176Z,43.20
2023-03-22T13:02:31.790Z,43.31
2023-03-22T13:05:01.109Z,43.32
2023-03-22T13:07:28.230Z,43.30
2023-03-22T13:09:59.704Z,43.24
2023-03-22T13:12:32.019Z,43.34
2023-03-22T13:15:41.301Z,43.32
2023-03-22T13:18:44.444Z,43.30
2023-03-22T13:21:36.838Z,43.57
2023-03-22T13:24:07.033Z,43.49
2023-03-22T13:26:37.583Z,43.47
2023-03-22T13:29:18.861Z,43.48
2023-03-22T13:31:47.762Z,43.43
2023-03-22T13:34:21.353Z,43.18
2023-03-22T13:36:54.846Z,43.38
2023-03-22T13:39:25.691Z,43.29
2023-03-22T13:42:22.913Z,43.23
2023-03-22T13:45:02.249Z,43.23
2023-03-22T13:47:45.069Z,43.31
2023-03-22T13:50:33.452Z,43.23
2023-03-22T13:53:19.448Z,43.27
2023-03-22T13:55:46.617Z,43.33
2023-03-22T13:58:51.204Z,43.44
2023-03-22T14:01:29.496Z,42.80
2023-03-22T14:04:06.035Z,42.88
2023-03-22T14:06:37.761Z,42.94
2023-03-22T14:09:22.348Z,43.26
2023-03-22T14:12:00.533Z,43.07
2023-03-22T14:14:43.659Z,43.14
2023-03-22T14:17:18.188Z,42.96
2023-03-22T14:19:52.417Z,42.91
